Time;durP1;ratioP1;P1;durP2;ratioP2;P2;SDS_P1;SDS_P2;PMS_P1;PMS_P2;Temp;Humidity;BMP_temperature;BMP_pressure;BME280_temperature;BME280_humidity;BME280_pressure;Samples;Min_cycle;Max_cycle;Signal;HPM_P1;HPM_P2
2021/06/27 00:00:35;;;;;;;0.40;0.40;;;;;;;16.85;74.36;96935.41;29396;282;63009;-62
2021/06/27 00:01:07;;;;;;;0.40;0.40;;;;;;;16.85;74.40;96932.69;29395;229;64009;-63
2021/06/27 00:01:38;;;;;;;0.40;0.40;;;;;;;16.83;74.91;96941.22;29396;291;63009;-63
2021/06/27 00:02:09;;;;;;;0.40;0.40;;;;;;;16.81;75.08;96942.69;29396;197;63005;-62
2021/06/27 00:02:40;;;;;;;0.40;0.40;;;;;;;16.80;74.37;96938.34;29396;222;63009;-70
2021/06/27 00:03:15;;;;;;;0.40;0.40;;;;;;;16.79;74.80;96943.03;29397;334;63005;-63
2021/06/27 00:03:50;;;;;;;0.40;0.40;;;;;;;16.78;74.80;96944.16;29397;215;63009;-64
2021/06/27 00:04:21;;;;;;;0.40;0.40;;;;;;;16.77;74.84;96937.06;29397;195;63000;-63
2021/06/27 00:04:52;;;;;;;0.40;0.40;;;;;;;16.77;74.74;96941.75;29397;218;63009;-62
2021/06/27 00:05:26;;;;;;;0.40;0.40;;;;;;;16.74;74.36;96944.00;29397;222;63004;-63
2021/06/27 00:05:59;;;;;;;0.40;0.40;;;;;;;16.74;74.39;96941.28;29396;197;64013;-62
2021/06/27 00:06:31;;;;;;;0.50;0.50;;;;;;;16.72;74.71;96940.81;29396;324;64009;-62
2021/06/27 00:07:02;;;;;;;0.50;0.50;;;;;;;16.73;74.24;96942.41;29397;211;63008;-62
2021/06/27 00:07:34;;;;;;;0.40;0.40;;;;;;;16.71;74.55;96944.69;29397;214;63004;-63
2021/06/27 00:08:07;;;;;;;0.40;0.40;;;;;;;16.71;74.38;96938.38;29397;221;63009;-70
2021/06/27 00:08:39;;;;;;;0.40;0.40;;;;;;;16.69;74.39;96935.97;29397;227;63005;-63
2021/06/27 00:09:11;;;;;;;0.40;0.40;;;;;;;16.69;74.42;96946.13;29395;226;64014;-63
2021/06/27 00:09:43;;;;;;;0.40;0.40;;;;;;;16.68;74.72;96939.84;29397;209;63010;-64
2021/06/27 00:10:17;;;;;;;0.40;0.40;;;;;;;16.67;74.56;96940.97;29397;198;63009;-63
2021/06/27 00:10:49;;;;;;;0.40;0.40;;;;;;;16.67;74.44;96937.44;29396;204;64009;-62
2021/06/27 00:11:23;;;;;;;0.40;0.40;;;;;;;16.66;74.68;96938.56;29397;219;63009;-64
2021/06/27 00:11:55;;;;;;;0.40;0.40;;;;;;;16.63;74.74;96940.00;29396;302;64009;-63
2021/06/27 00:12:26;;;;;;;0.40;0.40;;;;;;;16.63;74.53;96934.53;29397;220;63009;-63
2021/06/27 00:12:58;;;;;;;0.40;0.40;;;;;;;16.64;74.46;96943.59;29397;270;63004;-64
2021/06/27 00:13:31;;;;;;;0.40;0.40;;;;;;;16.62;74.72;96938.44;29397;215;63009;-62
2021/06/27 00:14:03;;;;;;;0.40;0.40;;;;;;;16.62;74.52;96938.44;29397;218;63004;-63
2021/06/27 00:14:35;;;;;;;0.40;0.40;;;;;;;16.61;74.64;96934.09;29397;226;63008;-63
2021/06/27 00:15:38;;;;;;;0.40;0.40;;;;;;;16.60;74.38;96937.97;29397;233;63004;-63
2021/06/27 00:16:09;;;;;;;;;;;;;;;16.61;74.69;96939.56;29997;982;6009;-62
2021/06/27 00:16:41;;;;;;;0.40;0.40;;;;;;;16.61;74.36;96942.31;29422;197;63005;-63
2021/06/27 00:17:12;;;;;;;0.40;0.40;;;;;;;16.60;74.31;96943.44;29396;345;63000;-63
2021/06/27 00:17:44;;;;;;;0.40;0.40;;;;;;;16.60;74.47;96937.97;29396;224;64013;-62
2021/06/27 00:18:19;;;;;;;0.40;0.40;;;;;;;16.59;74.34;96936.34;29396;233;63011;-63
2021/06/27 00:18:51;;;;;;;0.40;0.40;;;;;;;16.59;74.11;96941.81;29396;199;63005;-63
2021/06/27 00:19:22;;;;;;;0.40;0.40;;;;;;;16.60;74.46;96943.44;29396;279;63004;-62
2021/06/27 00:19:53;;;;;;;0.40;0.40;;;;;;;16.59;74.03;96941.81;29396;213;63009;-63
2021/06/27 00:20:28;;;;;;;0.40;0.40;;;;;;;16.57;74.46;96938.63;29396;206;63004;-63
2021/06/27 00:21:02;;;;;;;0.40;0.40;;;;;;;16.58;74.37;96939.41;29395;230;64013;-63
2021/06/27 00:21:35;;;;;;;0.40;0.40;;;;;;;16.57;74.17;96935.88;29395;203;64009;-63
2021/06/27 00:22:08;;;;;;;0.40;0.40;;;;;;;16.57;74.39;96941.34;29396;324;63015;-62
2021/06/27 00:22:40;;;;;;;0.40;0.40;;;;;;;16.57;74.46;96944.09;29396;213;63004;-62
2021/06/27 00:23:14;;;;;;;0.40;0.40;;;;;;;16.57;74.12;96944.09;29396;324;63009;-71
2021/06/27 00:23:49;;;;;;;0.40;0.40;;;;;;;16.58;74.01;96947.63;29396;205;63005;-63
2021/06/27 00:24:20;;;;;;;0.40;0.40;;;;;;;16.57;74.02;96944.09;29396;206;63009;-62
2021/06/27 00:24:51;;;;;;;0.40;0.40;;;;;;;16.57;74.10;96948.75;29396;215;63005;-62
2021/06/27 00:25:25;;;;;;;0.40;0.40;;;;;;;16.56;73.98;96942.47;29396;198;63009;-62
2021/06/27 00:25:59;;;;;;;0.40;0.40;;;;;;;16.57;74.30;96949.56;29396;207;63005;-63
2021/06/27 00:26:30;;;;;;;0.40;0.40;;;;;;;16.56;74.25;96947.97;29395;227;64005;-63
2021/06/27 00:27:02;;;;;;;0.40;0.40;;;;;;;16.55;74.22;96943.63;29396;196;63004;-63
2021/06/27 00:27:33;;;;;;;0.43;0.43;;;;;;;16.56;74.21;96945.22;29396;291;63009;-70
2021/06/27 00:28:06;;;;;;;0.40;0.40;;;;;;;16.55;74.14;96946.34;29396;217;63004;-64
2021/06/27 00:28:37;;;;;;;0.40;0.40;;;;;;;16.55;74.43;96946.34;29396;202;63008;-63
2021/06/27 00:29:08;;;;;;;0.40;0.40;;;;;;;16.54;74.44;96944.75;29396;217;63004;-70
2021/06/27 00:29:40;;;;;;;0.40;0.40;;;;;;;16.53;74.62;96947.81;29396;214;63008;-63
2021/06/27 00:30:12;;;;;;;0.40;0.40;;;;;;;16.52;74.31;96946.22;29396;227;63004;-64
2021/06/27 00:30:45;;;;;;;0.40;0.40;;;;;;;16.50;74.38;96949.28;29396;277;63009;-63
2021/06/27 00:31:17;;;;;;;0.40;0.40;;;;;;;16.53;74.57;96947.81;29396;237;63005;-71
2021/06/27 00:31:49;;;;;;;0.40;0.40;;;;;;;16.52;74.34;96947.00;29395;345;64013;-62
2021/06/27 00:32:21;;;;;;;0.40;0.40;;;;;;;16.52;74.00;96941.53;29396;229;63005;-63
2021/06/27 00:32:52;;;;;;;0.40;0.40;;;;;;;16.53;73.98;96937.66;29396;275;63015;-62
2021/06/27 00:33:24;;;;;;;0.40;0.40;;;;;;;16.52;74.10;96941.53;29396;249;63005;-63
2021/06/27 00:33:55;;;;;;;0.40;0.40;;;;;;;16.54;73.84;96939.28;29396;216;63009;-62
2021/06/27 00:34:27;;;;;;;0.40;0.40;;;;;;;16.55;73.79;96946.34;29396;199;63017;-62
2021/06/27 00:34:59;;;;;;;0.40;0.40;;;;;;;16.54;73.69;96933.00;29395;197;64013;-62
2021/06/27 00:35:31;;;;;;;0.40;0.40;;;;;;;16.54;73.83;96936.53;29396;232;63004;-63
2021/06/27 00:36:04;;;;;;;0.40;0.40;;;;;;;16.53;73.65;96942.34;29396;236;63009;-62
2021/06/27 00:36:35;;;;;;;0.40;0.40;;;;;;;16.54;73.70;96944.75;29396;231;63004;-63
2021/06/27 00:37:08;;;;;;;0.45;0.45;;;;;;;16.54;73.67;96942.00;29396;267;63009;-62
2021/06/27 00:37:40;;;;;;;0.37;0.37;;;;;;;16.54;73.50;96939.28;29396;208;63018;-63
2021/06/27 00:38:12;;;;;;;0.40;0.40;;;;;;;16.55;73.69;96940.06;29396;227;63009;-63
2021/06/27 00:38:44;;;;;;;0.40;0.40;;;;;;;16.54;73.67;96933.00;29396;257;63005;-63
2021/06/27 00:39:15;;;;;;;0.40;0.40;;;;;;;16.53;73.78;96937.66;29395;370;64013;-61
2021/06/27 00:39:46;;;;;;;0.40;0.40;;;;;;;16.51;73.71;96934.44;29396;214;63005;-63
2021/06/27 00:40:21;;;;;;;0.40;0.40;;;;;;;16.51;73.48;96939.94;29395;235;64009;-63
2021/06/27 00:40:53;;;;;;;0.40;0.40;;;;;;;16.50;73.88;96938.31;29396;219;63005;-63
2021/06/27 00:41:24;;;;;;;0.35;0.35;;;;;;;16.50;73.58;96930.09;29396;218;63009;-63
2021/06/27 00:41:55;;;;;;;0.40;0.40;;;;;;;16.49;73.64;96936.72;29396;232;63004;-62
2021/06/27 00:42:27;;;;;;;0.40;0.40;;;;;;;16.50;73.80;96937.53;29396;212;63009;-63
2021/06/27 00:42:59;;;;;;;0.40;0.40;;;;;;;16.48;73.63;96932.38;29396;196;63004;-63
2021/06/27 00:43:31;;;;;;;0.40;0.40;;;;;;;16.47;73.54;96933.50;29396;330;63009;-63
2021/06/27 00:44:03;;;;;;;0.40;0.40;;;;;;;16.47;73.63;96933.50;29396;294;63004;-63
2021/06/27 00:44:34;;;;;;;0.40;0.40;;;;;;;16.46;73.91;96934.63;29395;203;64014;-62
2021/06/27 00:45:10;;;;;;;0.40;0.40;;;;;;;16.46;73.67;96931.91;29396;379;63005;-63
2021/06/27 00:45:42;;;;;;;0.40;0.40;;;;;;;16.46;73.82;96933.81;29396;236;63009;-63
2021/06/27 00:46:13;;;;;;;0.40;0.40;;;;;;;16.45;73.84;96930.28;29396;287;63005;-64
2021/06/27 00:46:51;;;;;;;0.40;0.40;;;;;;;16.45;73.72;96935.75;29395;231;64013;-63
2021/06/27 00:47:30;;;;;;;0.40;0.40;;;;;;;16.45;73.81;96935.75;29396;202;63005;-62
2021/06/27 00:48:06;;;;;;;0.40;0.40;;;;;;;16.43;73.66;96929.81;29395;202;64013;-63
2021/06/27 00:48:37;;;;;;;0.40;0.40;;;;;;;16.42;73.84;96931.75;29396;211;63005;-62
2021/06/27 00:49:08;;;;;;;0.40;0.40;;;;;;;16.42;73.82;96936.41;29396;202;63009;-63
2021/06/27 00:49:39;;;;;;;0.40;0.40;;;;;;;16.42;73.97;96936.41;29396;236;63004;-63
2021/06/27 00:50:18;;;;;;;0.40;0.40;;;;;;;16.43;73.72;96932.56;29396;219;63009;-71
2021/06/27 00:50:53;;;;;;;0.40;0.40;;;;;;;16.42;73.82;96931.75;29396;196;63004;-63
2021/06/27 00:51:24;;;;;;;0.40;0.40;;;;;;;16.42;73.66;96930.94;29395;226;64013;-63
2021/06/27 00:51:55;;;;;;;0.40;0.40;;;;;;;16.42;73.76;96930.94;29396;365;63004;-64
2021/06/27 00:52:27;;;;;;;0.40;0.40;;;;;;;16.40;73.53;96928.53;29396;240;63009;-63
2021/06/27 00:52:59;;;;;;;0.40;0.40;;;;;;;16.39;73.95;96931.59;29396;218;63005;-63
2021/06/27 00:53:31;;;;;;;0.45;0.45;;;;;;;16.39;73.62;96937.06;29396;227;63009;-62
2021/06/27 00:54:02;;;;;;;0.40;0.40;;;;;;;16.38;73.92;96927.25;29396;236;63018;-62
2021/06/27 00:54:34;;;;;;;0.40;0.40;;;;;;;16.38;73.65;96930.78;29396;199;63009;-63
2021/06/27 00:55:06;;;;;;;0.40;0.40;;;;;;;16.37;73.72;96928.38;29396;202;63005;-63
2021/06/27 00:55:39;;;;;;;0.40;0.40;;;;;;;16.36;73.52;96927.56;29395;224;64013;-64
2021/06/27 00:56:11;;;;;;;0.40;0.40;;;;;;;16.37;73.48;96933.88;29396;234;63005;-63
2021/06/27 00:56:46;;;;;;;0.40;0.40;;;;;;;16.37;73.11;96922.91;29396;306;63024;-62
2021/06/27 00:57:18;;;;;;;0.40;0.40;;;;;;;16.36;73.23;96924.03;29396;209;63004;-63
2021/06/27 00:57:51;;;;;;;0.50;0.50;;;;;;;16.37;72.84;96933.88;29396;227;63009;-62
2021/06/27 00:58:31;;;;;;;0.40;0.40;;;;;;;16.40;72.26;96922.25;29396;315;63004;-63
2021/06/27 00:59:02;;;;;;;0.40;0.40;;;;;;;16.41;72.31;96929.34;29396;243;63008;-62
2021/06/27 00:59:33;;;;;;;0.40;0.40;;;;;;;16.43;72.16;96921.59;29396;227;63004;-62
2021/06/27 01:00:08;;;;;;;0.40;0.40;;;;;;;16.45;71.66;96919.34;29396;228;63009;-63
2021/06/27 01:00:41;;;;;;;0.40;0.40;;;;;;;16.47;71.70;96928.03;29395;245;64009;-71
2021/06/27 01:01:13;;;;;;;0.40;0.40;;;;;;;16.49;71.44;96925.75;29396;262;63009;-62
2021/06/27 01:01:44;;;;;;;0.40;0.40;;;;;;;16.50;71.65;96921.87;29396;225;63005;-62
2021/06/27 01:02:15;;;;;;;0.40;0.40;;;;;;;16.50;71.75;96930.09;29396;274;63009;-62
2021/06/27 01:02:47;;;;;;;0.40;0.40;;;;;;;16.51;71.58;96931.72;29396;209;63005;-63
2021/06/27 01:03:19;;;;;;;0.40;0.40;;;;;;;16.54;71.69;96928.31;29396;230;63009;-62
2021/06/27 01:03:50;;;;;;;0.40;0.40;;;;;;;16.54;71.36;96933.78;29396;231;63004;-63
2021/06/27 01:04:21;;;;;;;0.40;0.40;;;;;;;16.55;71.61;96929.91;29396;229;63009;-63
2021/06/27 01:04:52;;;;;;;0.40;0.40;;;;;;;16.55;71.52;96929.91;29396;238;63007;-62
2021/06/27 01:05:26;;;;;;;0.40;0.40;;;;;;;16.54;71.44;96928.31;29396;220;63009;-63
2021/06/27 01:05:57;;;;;;;0.40;0.40;;;;;;;16.55;71.37;96929.13;29395;231;64009;-62
2021/06/27 01:06:28;;;;;;;0.40;0.40;;;;;;;16.55;71.31;96929.91;29397;208;63008;-63
2021/06/27 01:07:03;;;;;;;0.40;0.40;;;;;;;16.55;71.45;96929.13;29397;334;63004;-62
2021/06/27 01:07:34;;;;;;;0.40;0.40;;;;;;;16.55;71.63;96927.19;29397;200;63009;-62
2021/06/27 01:08:07;;;;;;;0.40;0.40;;;;;;;16.55;71.41;96929.91;29397;262;63005;-62
2021/06/27 01:08:38;;;;;;;0.40;0.40;;;;;;;16.54;71.30;96928.31;29397;242;63009;-63
2021/06/27 01:09:09;;;;;;;0.40;0.40;;;;;;;16.54;71.31;96928.31;29395;205;63005;-62
2021/06/27 01:09:40;;;;;;;0.32;0.32;;;;;;;16.53;71.62;96934.94;29395;243;63009;-63
2021/06/27 01:10:15;;;;;;;0.40;0.40;;;;;;;16.54;71.46;96933.00;29395;203;63005;-63
2021/06/27 01:10:48;;;;;;;0.40;0.40;;;;;;;16.51;71.64;96931.72;29394;225;64013;-62
2021/06/27 01:11:19;;;;;;;0.43;0.43;;;;;;;16.52;71.40;96936.06;29395;212;63014;-62
2021/06/27 01:11:51;;;;;;;0.40;0.40;;;;;;;16.51;71.75;96931.72;29395;339;63009;-63
2021/06/27 01:12:23;;;;;;;0.40;0.40;;;;;;;16.50;71.56;96935.59;29395;207;63004;-63
2021/06/27 01:12:55;;;;;;;0.35;0.35;;;;;;;16.49;71.37;96935.91;29395;268;63009;-62
2021/06/27 01:13:26;;;;;;;0.40;0.40;;;;;;;16.48;71.61;96934.31;29395;230;63004;-63
2021/06/27 01:13:59;;;;;;;0.40;0.40;;;;;;;16.47;71.56;96936.25;29395;221;63008;-62
2021/06/27 01:14:30;;;;;;;0.35;0.35;;;;;;;16.46;71.19;96937.37;29395;209;63004;-62
2021/06/27 01:15:04;;;;;;;0.30;0.30;;;;;;;16.46;71.69;96931.09;29393;200;64014;-62
2021/06/27 01:15:36;;;;;;;0.40;0.40;;;;;;;16.46;71.65;96936.56;29395;303;63005;-62
2021/06/27 01:16:07;;;;;;;0.40;0.40;;;;;;;16.45;71.40;96941.25;29393;210;64014;-62
2021/06/27 01:16:41;;;;;;;0.40;0.40;;;;;;;16.45;71.54;96935.75;29393;309;64009;-64
2021/06/27 01:17:12;;;;;;;0.40;0.40;;;;;;;16.45;71.60;96941.25;29395;203;63009;-62
2021/06/27 01:17:48;;;;;;;0.40;0.40;;;;;;;16.45;71.50;96935.75;29395;309;63012;-61
2021/06/27 01:18:19;;;;;;;0.40;0.40;;;;;;;16.44;71.69;96934.16;29395;225;63012;-63
2021/06/27 01:18:54;;;;;;;0.40;0.40;;;;;;;16.43;71.53;96938.81;29395;231;63005;-62
2021/06/27 01:19:33;;;;;;;0.40;0.40;;;;;;;16.43;71.66;96932.56;29395;206;63009;-71
2021/06/27 01:20:14;;;;;;;0.40;0.40;;;;;;;16.43;71.59;96938.03;29393;259;64009;-63
2021/06/27 01:20:47;;;;;;;0.40;0.40;;;;;;;16.42;71.84;96937.22;29417;396;63008;-63
2021/06/27 01:21:18;;;;;;;0.40;0.40;;;;;;;16.41;71.63;96932.06;29395;232;63012;-63
2021/06/27 01:21:53;;;;;;;0.40;0.40;;;;;;;16.41;71.85;96941.09;29393;240;64014;-62
2021/06/27 01:22:26;;;;;;;0.40;0.40;;;;;;;16.41;71.67;96934.81;29395;214;63005;-63
2021/06/27 01:23:01;;;;;;;0.40;0.40;;;;;;;16.41;71.94;96940.28;29395;280;63009;-63
2021/06/27 01:23:33;;;;;;;0.40;0.40;;;;;;;16.41;71.60;96934.81;29395;214;63005;-69
2021/06/27 01:24:06;;;;;;;0.40;0.40;;;;;;;16.39;71.97;96935.13;29395;240;63009;-61
2021/06/27 01:24:37;;;;;;;0.40;0.40;;;;;;;16.38;71.52;96936.28;29395;261;63005;-63
2021/06/27 01:25:14;;;;;;;0.40;0.40;;;;;;;16.39;71.62;96937.06;29395;219;63009;-62
2021/06/27 01:25:51;;;;;;;0.40;0.40;;;;;;;16.38;71.51;96941.75;29395;224;63004;-62
2021/06/27 01:26:23;;;;;;;0.40;0.40;;;;;;;16.37;71.78;96937.41;29393;264;64013;-62
2021/06/27 01:26:57;;;;;;;0.40;0.40;;;;;;;16.39;71.38;96942.56;29395;236;63004;-63
2021/06/27 01:27:29;;;;;;;0.40;0.40;;;;;;;16.39;71.55;96937.06;29395;219;63004;-63
2021/06/27 01:28:00;;;;;;;0.30;0.30;;;;;;;16.38;71.63;96939.00;29395;226;63008;-63
2021/06/27 01:28:32;;;;;;;0.40;0.40;;;;;;;16.37;71.56;96940.12;29395;235;63008;-62
2021/06/27 01:29:03;;;;;;;0.40;0.40;;;;;;;16.36;71.70;96940.47;29395;208;63005;-62
2021/06/27 01:29:35;;;;;;;0.40;0.40;;;;;;;16.34;72.03;96940.00;29395;227;63018;-63
2021/06/27 01:30:09;;;;;;;0.40;0.40;;;;;;;16.33;71.99;96943.84;29394;309;64005;-62
2021/06/27 01:30:41;;;;;;;0.40;0.40;;;;;;;16.32;72.02;96945.78;29395;291;63009;-62
2021/06/27 01:31:14;;;;;;;0.40;0.40;;;;;;;16.32;71.93;96942.25;29395;226;63005;-71
2021/06/27 01:31:46;;;;;;;0.40;0.40;;;;;;;16.32;72.11;96942.25;29393;196;64013;-62
2021/06/27 01:32:18;;;;;;;0.40;0.40;;;;;;;16.31;72.07;96946.13;29395;205;63005;-63
2021/06/27 01:32:52;;;;;;;0.40;0.40;;;;;;;16.30;71.95;96950.00;29395;233;63009;-61
2021/06/27 01:33:23;;;;;;;0.40;0.40;;;;;;;16.29;71.89;96942.91;29395;198;63004;-61
2021/06/27 01:33:55;;;;;;;0.40;0.40;;;;;;;16.29;71.91;96943.72;29395;218;63009;-62
2021/06/27 01:34:26;;;;;;;0.40;0.40;;;;;;;16.29;71.73;96953.84;29395;224;63004;-63
2021/06/27 01:34:58;;;;;;;0.40;0.40;;;;;;;16.29;71.82;96943.72;29395;234;63009;-63
2021/06/27 01:35:29;;;;;;;0.40;0.40;;;;;;;16.29;71.82;96949.19;29395;213;63004;-63
2021/06/27 01:36:00;;;;;;;0.30;0.30;;;;;;;16.27;71.92;96946.00;29393;234;64013;-63
2021/06/27 01:36:32;;;;;;;0.40;0.40;;;;;;;16.28;72.24;96957.75;29395;213;63005;-63
2021/06/27 01:37:03;;;;;;;0.40;0.40;;;;;;;16.27;72.25;96958.88;29395;211;63009;-62
2021/06/27 01:37:35;;;;;;;0.40;0.40;;;;;;;16.26;72.20;96955.34;29395;202;63005;-63
2021/06/27 01:38:07;;;;;;;0.40;0.40;;;;;;;16.26;72.22;96957.28;29395;214;63009;-62
2021/06/27 01:38:38;;;;;;;0.40;0.40;;;;;;;16.25;71.88;96950.19;29395;203;63005;-63
2021/06/27 01:39:09;;;;;;;0.40;0.40;;;;;;;16.24;72.21;96949.41;29393;320;64013;-63
2021/06/27 01:39:41;;;;;;;0.30;0.30;;;;;;;16.25;71.94;96950.19;29395;202;63018;-63
2021/06/27 01:40:15;;;;;;;0.30;0.30;;;;;;;16.23;72.36;96949.72;29395;329;63009;-63
2021/06/27 01:40:47;;;;;;;0.40;0.40;;;;;;;16.22;72.09;96954.38;29395;255;63004;-63
2021/06/27 01:41:18;;;;;;;0.30;0.30;;;;;;;16.22;72.41;96945.37;29393;239;64002;-63
2021/06/27 01:41:51;;;;;;;0.40;0.40;;;;;;;16.22;72.29;96946.19;29395;340;63009;-63
2021/06/27 01:42:23;;;;;;;0.30;0.30;;;;;;;16.22;72.41;96942.63;29395;269;63009;-63
2021/06/27 01:43:16;;;;;;;0.40;0.40;;;;;;;16.22;72.32;96948.12;29395;218;63004;-63
2021/06/27 01:43:47;;;;;;;0.30;0.30;;;;;;;16.20;72.22;96951.19;29395;233;63008;-72
2021/06/27 01:44:19;;;;;;;0.40;0.40;;;;;;;16.20;72.39;96942.16;29395;223;63005;-63
2021/06/27 01:44:50;;;;;;;0.40;0.40;;;;;;;16.16;72.17;96938.47;29395;240;63009;-62
2021/06/27 01:45:26;;;;;;;0.40;0.40;;;;;;;16.19;72.09;96948.75;29395;199;63009;-62
2021/06/27 01:46:02;;;;;;;0.40;0.40;;;;;;;16.18;72.56;96947.16;29395;307;63009;-62
2021/06/27 01:46:33;;;;;;;0.40;0.40;;;;;;;16.17;72.41;96945.56;29394;259;64009;-63
2021/06/27 01:47:05;;;;;;;0.40;0.40;;;;;;;16.16;72.60;96946.69;29395;255;63018;-62
2021/06/27 01:47:36;;;;;;;0.40;0.40;;;;;;;16.15;72.63;96942.34;29395;220;63005;-64
2021/06/27 01:48:10;;;;;;;0.40;0.40;;;;;;;16.15;72.81;96934.94;29395;214;63023;-63
2021/06/27 01:48:42;;;;;;;0.40;0.40;;;;;;;16.14;72.77;96946.19;29395;256;63004;-63
2021/06/27 01:49:14;;;;;;;0.40;0.40;;;;;;;16.14;72.83;96940.72;29394;237;64013;-63
2021/06/27 01:49:45;;;;;;;0.30;0.30;;;;;;;16.12;72.51;96937.50;29395;235;63004;-62
2021/06/27 01:50:16;;;;;;;0.40;0.40;;;;;;;16.14;72.70;96947.00;29395;338;63008;-63
2021/06/27 01:50:49;;;;;;;0.40;0.40;;;;;;;16.14;72.79;96946.19;29395;225;63004;-63
2021/06/27 01:51:23;;;;;;;0.40;0.40;;;;;;;16.14;72.69;96936.06;29395;206;63008;-63
2021/06/27 01:51:54;;;;;;;0.40;0.40;;;;;;;16.15;72.72;96943.13;29395;214;63005;-63
2021/06/27 01:52:25;;;;;;;0.40;0.40;;;;;;;16.15;72.40;96945.06;29395;206;63009;-64
2021/06/27 01:52:59;;;;;;;0.40;0.40;;;;;;;16.14;72.83;96941.53;29395;245;63005;-63
2021/06/27 01:53:33;;;;;;;0.40;0.40;;;;;;;16.12;73.03;96946.53;29395;325;63024;-63
2021/06/27 01:54:06;;;;;;;0.40;0.40;;;;;;;16.11;73.31;96941.38;29394;249;64009;-63
2021/06/27 01:54:38;;;;;;;0.40;0.40;;;;;;;16.11;72.89;96930.44;29395;231;63018;-63
2021/06/27 01:55:09;;;;;;;0.40;0.40;;;;;;;16.10;73.18;96935.09;29395;213;63000;-63
2021/06/27 01:55:42;;;;;;;0.40;0.40;;;;;;;16.11;73.05;96944.13;29395;210;63009;-62
2021/06/27 01:56:13;;;;;;;0.40;0.40;;;;;;;16.09;72.85;96938.97;29395;199;63004;-71
2021/06/27 01:56:45;;;;;;;0.40;0.40;;;;;;;16.09;72.85;96939.78;29395;227;63009;-61
2021/06/27 01:57:20;;;;;;;0.40;0.40;;;;;;;16.09;73.10;96933.50;29395;206;63004;-72
2021/06/27 01:57:53;;;;;;;0.40;0.40;;;;;;;16.09;72.85;96942.50;29395;199;63008;-63
2021/06/27 01:58:26;;;;;;;0.40;0.40;;;;;;;16.09;73.07;96938.97;29395;197;63005;-63
2021/06/27 01:58:58;;;;;;;0.40;0.40;;;;;;;16.08;72.78;96935.44;29394;227;64014;-71
2021/06/27 01:59:29;;;;;;;0.40;0.40;;;;;;;16.09;72.67;96930.75;29395;197;63005;-62
2021/06/27 02:00:02;;;;;;;0.40;0.40;;;;;;;16.08;72.88;96929.94;29395;265;63009;-64
2021/06/27 02:00:35;;;;;;;0.40;0.40;;;;;;;16.06;72.86;96929.47;29395;225;63005;-63
2021/06/27 02:01:14;;;;;;;0.40;0.40;;;;;;;16.08;72.75;96926.41;29395;318;63009;-63
2021/06/27 02:01:45;;;;;;;0.40;0.40;;;;;;;16.07;72.64;96925.59;29395;283;63005;-63
2021/06/27 02:02:18;;;;;;;0.40;0.40;;;;;;;16.08;72.60;96938.16;29395;218;63009;-62
2021/06/27 02:02:49;;;;;;;0.40;0.40;;;;;;;16.06;72.89;96929.47;29395;218;63004;-62
2021/06/27 02:03:21;;;;;;;0.40;0.40;;;;;;;16.06;72.81;96934.94;29395;295;63009;-63
2021/06/27 02:03:52;;;;;;;0.40;0.40;;;;;;;16.05;72.97;96936.06;29395;233;63004;-63
2021/06/27 02:04:27;;;;;;;0.40;0.40;;;;;;;16.06;72.57;96937.69;29394;215;64013;-63
2021/06/27 02:04:59;;;;;;;0.40;0.40;;;;;;;16.06;72.46;96928.66;29395;203;63004;-63
2021/06/27 02:05:31;;;;;;;0.40;0.40;;;;;;;16.05;72.40;96936.06;29395;377;63008;-63
2021/06/27 02:06:03;;;;;;;0.40;0.40;;;;;;;16.06;72.79;96940.41;29395;226;63005;-72
2021/06/27 02:06:38;;;;;;;0.40;0.40;;;;;;;16.06;72.62;96934.94;29395;226;63009;-62
2021/06/27 02:07:11;;;;;;;0.40;0.40;;;;;;;16.05;72.64;96938.81;29395;207;63005;-63
2021/06/27 02:07:42;;;;;;;0.40;0.40;;;;;;;16.07;72.46;96935.75;29395;202;63009;-71
2021/06/27 02:08:14;;;;;;;0.40;0.40;;;;;;;16.06;72.41;96937.69;29394;221;64009;-62
2021/06/27 02:08:45;;;;;;;0.40;0.40;;;;;;;16.08;72.41;96937.34;29395;199;63009;-63
2021/06/27 02:09:17;;;;;;;0.40;0.40;;;;;;;16.08;72.15;96931.88;29395;202;63009;-62
2021/06/27 02:09:48;;;;;;;0.40;0.40;;;;;;;16.07;72.13;96939.28;29394;202;64013;-62
2021/06/27 02:10:23;;;;;;;0.40;0.40;;;;;;;16.08;72.12;96932.69;29395;212;63004;-63
2021/06/27 02:10:54;;;;;;;0.40;0.40;;;;;;;16.08;72.12;96940.09;29395;224;63025;-63
2021/06/27 02:11:27;;;;;;;0.40;0.40;;;;;;;16.09;71.99;96936.22;29395;333;63004;-64
2021/06/27 02:11:59;;;;;;;0.40;0.40;;;;;;;16.11;71.94;96935.91;29395;232;63011;-62
2021/06/27 02:12:31;;;;;;;0.40;0.40;;;;;;;16.09;72.18;96934.28;29395;243;63004;-62
2021/06/27 02:13:04;;;;;;;0.40;0.40;;;;;;;16.11;72.19;96935.91;29395;217;63008;-62
2021/06/27 02:13:36;;;;;;;0.40;0.40;;;;;;;16.09;71.86;96939.78;29394;257;64009;-65
2021/06/27 02:14:08;;;;;;;0.40;0.40;;;;;;;16.09;71.90;96928.81;29395;214;63009;-71
2021/06/27 02:14:40;;;;;;;0.40;0.40;;;;;;;16.11;71.82;96930.44;29395;213;63005;-62
2021/06/27 02:15:13;;;;;;;0.40;0.40;;;;;;;16.10;72.06;96929.63;29395;255;63009;-71
2021/06/27 02:15:44;;;;;;;0.40;0.40;;;;;;;16.10;71.87;96926.88;29395;270;63005;-62
2021/06/27 02:16:16;;;;;;;0.40;0.40;;;;;;;16.09;72.00;96928.81;29395;212;63026;-62
2021/06/27 02:16:50;;;;;;;0.40;0.40;;;;;;;16.09;71.63;96928.81;29395;215;63005;-73
2021/06/27 02:17:21;;;;;;;0.43;0.43;;;;;;;16.09;71.67;96928.81;29395;216;63009;-61
2021/06/27 02:18:23;;;;;;;0.40;0.40;;;;;;;16.09;71.86;96931.56;29395;291;63004;-63
2021/06/27 02:18:54;;;;;;;0.40;0.40;;;;;;;16.09;72.06;96934.28;29394;236;64013;-63
2021/06/27 02:19:26;;;;;;;0.40;0.40;;;;;;;16.11;71.78;96941.38;29395;244;63008;-63
2021/06/27 02:19:57;;;;;;;0.40;0.40;;;;;;;16.11;71.85;96930.44;29395;337;63009;-63
2021/06/27 02:20:32;;;;;;;0.40;0.40;;;;;;;16.11;72.08;96942.19;29395;207;63004;-62
2021/06/27 02:21:11;;;;;;;0.40;0.40;;;;;;;16.11;72.04;96931.22;29395;212;63019;-62
2021/06/27 02:21:43;;;;;;;0.40;0.40;;;;;;;16.12;71.73;96937.50;29395;298;63005;-62
2021/06/27 02:22:16;;;;;;;0.50;0.50;;;;;;;16.12;71.75;96934.78;29394;366;64014;-62
2021/06/27 02:22:47;;;;;;;0.40;0.40;;;;;;;16.12;71.91;96932.03;29394;244;64005;-63
2021/06/27 02:23:19;;;;;;;0.40;0.40;;;;;;;16.12;71.85;96932.84;29395;221;63009;-63
2021/06/27 02:23:51;;;;;;;0.40;0.40;;;;;;;16.14;71.45;96935.25;29395;214;63005;-72
2021/06/27 02:24:22;;;;;;;0.40;0.40;;;;;;;16.16;71.38;96933.00;29395;207;63018;-72
2021/06/27 02:24:53;;;;;;;0.40;0.40;;;;;;;16.17;71.00;96934.59;29395;216;63005;-62
2021/06/27 02:25:25;;;;;;;0.40;0.40;;;;;;;16.18;71.33;96941.69;29395;336;63009;-71
2021/06/27 02:25:57;;;;;;;0.40;0.40;;;;;;;16.18;71.14;96936.22;29395;222;63004;-62
2021/06/27 02:26:29;;;;;;;0.40;0.40;;;;;;;16.19;71.11;96932.34;29394;233;64013;-71
2021/06/27 02:27:01;;;;;;;0.40;0.40;;;;;;;16.20;71.00;96933.94;29395;222;63004;-63
2021/06/27 02:27:32;;;;;;;0.40;0.40;;;;;;;16.21;70.96;96932.81;29395;209;63009;-62
2021/06/27 02:28:04;;;;;;;0.40;0.40;;;;;;;16.22;70.51;96931.69;29395;205;63004;-63
2021/06/27 02:28:36;;;;;;;0.40;0.40;;;;;;;16.25;70.15;96931.03;29395;304;63024;-62
2021/06/27 02:29:07;;;;;;;0.35;0.35;;;;;;;16.27;70.38;96934.25;29395;246;63005;-63
2021/06/27 02:29:38;;;;;;;0.30;0.30;;;;;;;16.29;70.25;96932.75;29395;205;63009;-62
2021/06/27 02:30:12;;;;;;;0.40;0.40;;;;;;;16.32;69.58;96925.81;29395;320;63005;-63
2021/06/27 02:30:43;;;;;;;0.37;0.37;;;;;;;16.35;69.58;96919.69;29395;352;63009;-62
2021/06/27 02:31:16;;;;;;;0.40;0.40;;;;;;;16.36;69.68;96921.28;29395;297;63005;-63
2021/06/27 02:31:50;;;;;;;0.40;0.40;;;;;;;16.37;69.66;96925.66;29394;229;64013;-62
2021/06/27 02:32:22;;;;;;;0.40;0.40;;;;;;;16.38;69.59;96919.03;29395;224;63005;-63
2021/06/27 02:32:54;;;;;;;0.40;0.40;;;;;;;16.41;69.43;96921.13;29395;215;63009;-62
2021/06/27 02:33:25;;;;;;;0.37;0.37;;;;;;;16.42;69.12;96914.50;29395;215;63004;-62
2021/06/27 02:33:57;;;;;;;0.40;0.40;;;;;;;16.42;69.33;96914.50;29395;203;63009;-62
2021/06/27 02:34:28;;;;;;;0.40;0.40;;;;;;;16.42;69.24;96909.84;29395;214;63004;-62
2021/06/27 02:35:00;;;;;;;0.40;0.40;;;;;;;16.42;69.32;96909.03;29395;294;63008;-62
2021/06/27 02:35:32;;;;;;;0.37;0.37;;;;;;;16.42;69.39;96903.56;29395;196;63017;-62
2021/06/27 02:36:04;;;;;;;0.40;0.40;;;;;;;16.42;69.70;96903.56;29395;261;63009;-62